createdAt,value
2022-11-10T00:00:01.975Z,84.30
2022-11-10T00:03:23.149Z,84.62
2022-11-10T00:06:46.189Z,83.69
2022-11-10T00:10:07.669Z,84.91
2022-11-10T00:13:31.740Z,85.49
2022-11-10T00:17:01.311Z,86.10
2022-11-10T00:20:21.789Z,86.33
2022-11-10T00:23:42.600Z,87.88
2022-11-10T00:27:03.287Z,88.49
2022-11-10T00:30:24.152Z,90.46
2022-11-10T00:33:44.813Z,90.47
2022-11-10T00:37:05.290Z,90.10
2022-11-10T00:40:25.755Z,90.89
2022-11-10T00:43:46.301Z,91.21
2022-11-10T00:47:06.671Z,92.43
2022-11-10T00:50:27.149Z,92.13
2022-11-10T00:53:48.293Z,91.63
2022-11-10T00:57:08.651Z,90.69
2022-11-10T01:00:29.128Z,90.51
2022-11-10T01:03:49.602Z,90.16
2022-11-10T01:07:09.976Z,90.66
2022-11-10T01:10:30.461Z,91.31
2022-11-10T01:13:51.976Z,90.90
2022-11-10T01:17:13.019Z,91.20
2022-11-10T01:20:34.497Z,90.59
2022-11-10T01:23:55.294Z,91.03
2022-11-10T01:27:15.910Z,90.69
2022-11-10T01:30:36.350Z,91.04
2022-11-10T01:33:59.100Z,90.26
2022-11-10T01:37:19.776Z,88.93
2022-11-10T01:40:40.305Z,88.74
2022-11-10T01:44:36.762Z,89.23
2022-11-10T01:48:00.150Z,89.84
2022-11-10T01:51:42.277Z,89.98
2022-11-10T01:55:03.070Z,89.71
2022-11-10T01:58:30.497Z,87.99
2022-11-10T02:01:51.007Z,89.54
2022-11-10T02:05:11.746Z,90.43
2022-11-10T02:08:32.276Z,91.20
2022-11-10T02:11:53.652Z,90.80
2022-11-10T02:15:16.209Z,90.78
2022-11-10T02:18:38.136Z,89.79
2022-11-10T02:21:58.864Z,91.58
2022-11-10T02:25:21.550Z,90.73
2022-11-10T02:28:42.409Z,91.14
2022-11-10T02:32:02.784Z,90.65
2022-11-10T02:35:23.305Z,88.66
2022-11-10T02:38:43.845Z,87.53
2022-11-10T02:42:10.282Z,87.13
2022-11-10T02:45:31.009Z,86.68
2022-11-10T02:48:51.642Z,86.84
2022-11-10T02:52:11.972Z,85.60
2022-11-10T02:55:32.452Z,85.44
2022-11-10T02:58:52.879Z,85.26
2022-11-10T03:02:14.134Z,84.95
2022-11-10T03:05:34.757Z,84.86
2022-11-10T03:08:55.412Z,84.80
2022-11-10T03:12:16.799Z,84.72
2022-11-10T03:15:37.213Z,84.08
2022-11-10T03:18:57.504Z,83.19
2022-11-10T03:22:17.892Z,82.70
2022-11-10T03:25:38.683Z,82.44
2022-11-10T03:28:59.303Z,82.09
2022-11-10T03:32:19.625Z,81.75
2022-11-10T03:35:39.938Z,82.13
2022-11-10T03:39:00.509Z,80.83
2022-11-10T03:42:20.904Z,80.74
2022-11-10T03:45:44.806Z,82.70
2022-11-10T03:49:05.845Z,83.71
2022-11-10T03:52:26.529Z,84.96
2022-11-10T03:55:46.885Z,86.77
2022-11-10T03:59:07.434Z,88.16
2022-11-10T04:02:27.706Z,88.16
2022-11-10T04:06:06.941Z,87.69
2022-11-10T04:09:27.434Z,87.22
2022-11-10T04:13:06.251Z,85.79
2022-11-10T04:16:26.878Z,84.77
2022-11-10T04:19:47.599Z,83.52
2022-11-10T04:23:40.436Z,81.92
2022-11-10T04:27:00.920Z,80.80
2022-11-10T04:30:21.425Z,80.36
2022-11-10T04:33:43.342Z,80.79
2022-11-10T04:37:03.718Z,80.97
2022-11-10T04:40:24.152Z,81.07
2022-11-10T04:43:44.640Z,80.66
2022-11-10T04:47:09.128Z,80.92
2022-11-10T04:50:32.546Z,80.76
2022-11-10T04:53:53.131Z,80.10
2022-11-10T04:57:19.092Z,80.58
2022-11-10T05:00:39.644Z,80.32
2022-11-10T05:04:01.161Z,80.33
2022-11-10T05:07:21.738Z,79.77
2022-11-10T05:10:42.098Z,80.39
2022-11-10T05:14:02.631Z,80.12
2022-11-10T05:17:23.368Z,79.81
2022-11-10T05:20:44.294Z,79.00
2022-11-10T05:24:05.067Z,79.05
2022-11-10T05:27:25.861Z,78.76
2022-11-10T05:30:46.140Z,79.44
2022-11-10T05:34:06.457Z,79.15
2022-11-10T05:37:26.951Z,79.31
2022-11-10T05:40:47.753Z,79.10
2022-11-10T05:44:08.310Z,79.01
2022-11-10T05:47:29.081Z,79.01
2022-11-10T05:50:49.729Z,79.20
2022-11-10T05:54:10.476Z,77.70
2022-11-10T05:57:30.745Z,78.52
2022-11-10T06:00:51.268Z,78.63
2022-11-10T06:04:11.752Z,78.16
2022-11-10T06:07:32.269Z,79.88
2022-11-10T06:10:52.618Z,78.69
2022-11-10T06:14:13.019Z,79.25
2022-11-10T06:17:33.391Z,78.93
2022-11-10T06:20:53.874Z,79.42
2022-11-10T06:24:14.469Z,79.87
2022-11-10T06:27:34.932Z,80.05
2022-11-10T06:30:58.800Z,79.62
2022-11-10T06:34:19.070Z,79.37
2022-11-10T06:37:39.390Z,80.13
2022-11-10T06:40:59.720Z,80.52
2022-11-10T06:44:20.153Z,80.55
2022-11-10T06:47:40.586Z,81.14
2022-11-10T06:51:02.162Z,82.27
2022-11-10T06:54:22.669Z,82.33
2022-11-10T06:57:43.032Z,82.10
2022-11-10T07:01:03.521Z,82.58
2022-11-10T07:04:24.357Z,82.27
2022-11-10T07:07:44.774Z,81.66
2022-11-10T07:11:05.359Z,82.92
2022-11-10T07:14:25.921Z,84.23
2022-11-10T07:17:46.602Z,84.25
2022-11-10T07:21:07.023Z,84.63
2022-11-10T07:24:30.352Z,83.75
2022-11-10T07:28:01.780Z,84.09
2022-11-10T07:31:22.130Z,84.24
2022-11-10T07:34:42.505Z,84.25
2022-11-10T07:38:08.508Z,84.61
2022-11-10T07:41:28.752Z,84.81
2022-11-10T07:44:49.101Z,84.83
2022-11-10T07:48:10.178Z,83.78
2022-11-10T07:51:31.516Z,83.56
2022-11-10T07:54:51.994Z,83.20
2022-11-10T07:58:15.381Z,84.00
2022-11-10T08:01:36.250Z,83.88
2022-11-10T08:04:57.123Z,84.14
2022-11-10T08:08:17.873Z,84.21
2022-11-10T08:11:40.687Z,84.33
2022-11-10T08:15:01.188Z,84.53
2022-11-10T08:18:23.112Z,84.94
2022-11-10T08:21:43.624Z,84.43
2022-11-10T08:25:04.448Z,84.33
2022-11-10T08:28:25.117Z,87.29
2022-11-10T08:31:45.583Z,86.26
2022-11-10T08:35:06.384Z,85.50
2022-11-10T08:38:26.778Z,83.10
2022-11-10T08:41:47.260Z,81.63
2022-11-10T08:45:08.070Z,81.86
2022-11-10T08:48:28.582Z,80.92
2022-11-10T08:51:48.969Z,80.13
2022-11-10T08:55:09.489Z,80.76
2022-11-10T08:58:30.157Z,79.93
2022-11-10T09:01:50.593Z,79.32
2022-11-10T09:05:11.113Z,79.03
2022-11-10T09:08:34.052Z,79.92
2022-11-10T09:11:54.981Z,79.96
2022-11-10T09:15:15.457Z,79.95
2022-11-10T09:18:36.000Z,80.42
2022-11-10T09:21:56.564Z,82.69
2022-11-10T09:25:16.984Z,84.04
2022-11-10T09:28:42.411Z,84.20
2022-11-10T09:32:03.005Z,83.16
2022-11-10T09:35:23.535Z,82.63
2022-11-10T09:38:44.368Z,80.19
2022-11-10T09:42:06.486Z,79.59
2022-11-10T09:45:39.075Z,80.28
2022-11-10T09:49:07.222Z,80.64
2022-11-10T09:52:28.334Z,80.48
2022-11-10T09:56:07.777Z,79.72
2022-11-10T09:59:32.778Z,78.90
2022-11-10T10:02:58.990Z,79.37
2022-11-10T10:06:21.957Z,79.00
2022-11-10T10:09:51.504Z,79.01
2022-11-10T10:13:23.798Z,78.91
2022-11-10T10:17:14.793Z,78.74
2022-11-10T10:20:53.336Z,79.34
2022-11-10T10:24:21.596Z,79.35
2022-11-10T10:27:42.540Z,78.64
2022-11-10T10:31:21.118Z,78.36
2022-11-10T10:34:44.185Z,77.71
2022-11-10T10:38:05.344Z,76.97
2022-11-10T10:41:28.825Z,77.62
2022-11-10T10:45:15.293Z,75.86
2022-11-10T10:48:36.385Z,75.94
2022-11-10T10:52:14.423Z,77.39
2022-11-10T10:55:36.057Z,78.66
2022-11-10T10:58:59.013Z,80.45
2022-11-10T11:02:31.169Z,82.21
2022-11-10T11:06:08.079Z,81.48
2022-11-10T11:09:41.209Z,80.95
2022-11-10T11:13:24.868Z,81.72
2022-11-10T11:16:56.971Z,81.17
2022-11-10T11:20:17.625Z,81.63
2022-11-10T11:24:15.543Z,81.33
2022-11-10T11:28:12.886Z,80.75
2022-11-10T11:31:43.389Z,80.32
2022-11-10T11:35:54.322Z,79.79
2022-11-10T11:39:40.232Z,79.21
2022-11-10T11:43:44.786Z,79.98
2022-11-10T11:47:26.320Z,81.71
2022-11-10T11:51:14.609Z,82.49
2022-11-10T11:55:00.047Z,81.58
2022-11-10T11:58:35.786Z,81.27
2022-11-10T12:02:18.359Z,80.83
2022-11-10T12:06:20.158Z,80.94
2022-11-10T12:09:46.281Z,82.84
2022-11-10T12:13:15.437Z,82.28
2022-11-10T12:16:35.944Z,82.77
2022-11-10T12:20:33.316Z,84.33
2022-11-10T12:24:31.127Z,84.40
2022-11-10T12:28:07.911Z,84.73
2022-11-10T12:31:30.043Z,84.64
2022-11-10T12:35:05.969Z,83.40
2022-11-10T12:39:00.753Z,83.42
2022-11-10T12:42:27.398Z,82.78
2022-11-10T12:45:53.214Z,83.01
2022-11-10T12:49:40.812Z,81.43
2022-11-10T12:53:23.925Z,81.53
2022-11-10T12:56:55.380Z,78.78
2022-11-10T13:00:31.146Z,79.67
2022-11-10T13:03:59.798Z,80.95
2022-11-10T13:07:23.976Z,82.27
2022-11-10T13:11:05.507Z,83.07
2022-11-10T13:14:30.435Z,83.13
2022-11-10T13:17:51.207Z,82.27
2022-11-10T13:21:11.857Z,81.96
2022-11-10T13:24:39.896Z,81.99
2022-11-10T13:28:00.377Z,81.94
2022-11-10T13:31:31.129Z,79.10
2022-11-10T13:34:51.933Z,77.98
2022-11-10T13:38:36.633Z,76.54
2022-11-10T13:42:10.323Z,76.53
2022-11-10T13:45:41.943Z,75.09
2022-11-10T13:49:51.709Z,74.89
2022-11-10T13:53:25.567Z,74.17
2022-11-10T13:56:52.326Z,72.89
2022-11-10T14:00:18.837Z,72.26
2022-11-10T14:03:45.418Z,72.47
2022-11-10T14:07:16.927Z,72.45
2022-11-10T14:11:02.256Z,71.90
2022-11-10T14:14:56.539Z,71.97
2022-11-10T14:18:29.252Z,71.50
2022-11-10T14:21:58.544Z,69.48
2022-11-10T14:25:40.185Z,66.52
2022-11-10T14:29:38.381Z,58.67
2022-11-10T14:33:10.641Z,55.95
2022-11-10T14:36:32.245Z,63.18
2022-11-10T14:39:57.944Z,56.89
2022-11-10T14:43:44.792Z,61.64
2022-11-10T14:47:25.554Z,63.47
2022-11-10T14:50:46.305Z,66.41
2022-11-10T14:54:10.006Z,60.29
2022-11-10T14:57:30.635Z,61.78
2022-11-10T15:00:51.288Z,61.71
2022-11-10T15:04:11.901Z,59.45
2022-11-10T15:07:32.519Z,63.57
2022-11-10T15:10:59.141Z,66.26
2022-11-10T15:14:35.482Z,67.28
2022-11-10T15:17:55.861Z,68.30
2022-11-10T15:21:20.765Z,67.81
2022-11-10T15:24:43.331Z,68.01
2022-11-10T15:28:13.084Z,68.46
2022-11-10T15:31:33.869Z,68.43
2022-11-10T15:34:54.376Z,69.26
2022-11-10T15:38:20.674Z,69.79
2022-11-10T15:41:46.816Z,70.52
2022-11-10T15:45:07.641Z,69.57
2022-11-10T15:48:38.932Z,71.35
2022-11-10T15:52:01.961Z,72.09
2022-11-10T15:55:23.400Z,72.74
2022-11-10T15:58:48.892Z,72.96
2022-11-10T16:02:22.885Z,73.50
2022-11-10T16:05:43.618Z,74.17
2022-11-10T16:09:05.361Z,73.48
2022-11-10T16:12:26.025Z,74.72
2022-11-10T16:15:46.418Z,74.65
2022-11-10T16:19:06.785Z,74.43
2022-11-10T16:22:27.095Z,74.67
2022-11-10T16:25:49.087Z,75.51
2022-11-10T16:29:13.766Z,75.50
2022-11-10T16:32:34.670Z,75.19
2022-11-10T16:35:55.374Z,75.33
2022-11-10T16:39:16.382Z,74.85
2022-11-10T16:42:37.166Z,73.88
2022-11-10T16:45:59.997Z,73.99
2022-11-10T16:49:26.449Z,73.74
2022-11-10T16:52:46.895Z,73.14
2022-11-10T16:56:15.481Z,72.76
2022-11-10T16:59:36.247Z,72.46
2022-11-10T17:03:43.669Z,71.89
2022-11-10T17:07:09.850Z,70.93
2022-11-10T17:10:30.393Z,71.64
2022-11-10T17:13:50.757Z,71.36
2022-11-10T17:17:15.688Z,71.61
2022-11-10T17:20:37.963Z,70.24
2022-11-10T17:23:58.693Z,71.25
2022-11-10T17:27:20.165Z,70.58
2022-11-10T17:30:41.439Z,71.89
2022-11-10T17:34:02.181Z,72.40
2022-11-10T17:37:22.814Z,73.58
2022-11-10T17:40:43.555Z,73.74
2022-11-10T17:44:04.093Z,73.86
2022-11-10T17:47:24.479Z,73.42
2022-11-10T17:50:46.840Z,74.10
2022-11-10T17:54:15.545Z,74.79
2022-11-10T17:57:36.231Z,74.73
2022-11-10T18:00:56.571Z,74.24
2022-11-10T18:04:16.973Z,74.74
2022-11-10T18:07:37.776Z,74.69
2022-11-10T18:11:00.691Z,75.01
2022-11-10T18:14:21.391Z,74.23
2022-11-10T18:17:42.149Z,74.60
2022-11-10T18:21:02.692Z,74.86
2022-11-10T18:24:23.002Z,75.31
2022-11-10T18:27:43.354Z,75.21
2022-11-10T18:31:12.672Z,75.39
2022-11-10T18:34:33.233Z,75.30
2022-11-10T18:37:54.335Z,75.52
2022-11-10T18:41:33.925Z,75.08
2022-11-10T18:44:55.346Z,75.58
2022-11-10T18:48:15.839Z,75.46
2022-11-10T18:51:36.448Z,75.31
2022-11-10T18:54:56.923Z,77.24
2022-11-10T18:58:17.438Z,78.91
2022-11-10T19:01:38.576Z,78.76
2022-11-10T19:04:59.111Z,77.96
2022-11-10T19:08:19.504Z,77.88
2022-11-10T19:11:40.011Z,77.09
2022-11-10T19:15:00.442Z,77.92
2022-11-10T19:18:20.964Z,79.29
2022-11-10T19:21:41.422Z,80.21
2022-11-10T19:25:08.170Z,80.72
2022-11-10T19:28:29.378Z,80.56
2022-11-10T19:31:50.045Z,80.00
2022-11-10T19:35:11.092Z,79.77
2022-11-10T19:38:32.241Z,79.38
2022-11-10T19:41:52.732Z,78.64
2022-11-10T19:45:15.406Z,78.55
2022-11-10T19:48:41.157Z,77.38
2022-11-10T19:52:01.845Z,76.95
2022-11-10T19:55:22.286Z,76.49
2022-11-10T19:58:43.817Z,76.35
2022-11-10T20:02:04.387Z,76.01
2022-11-10T20:05:25.250Z,75.70
2022-11-10T20:08:46.220Z,76.14
2022-11-10T20:12:07.042Z,75.93
2022-11-10T20:15:28.033Z,76.10
2022-11-10T20:18:48.866Z,76.19
2022-11-10T20:22:11.846Z,75.64
2022-11-10T20:25:32.652Z,76.22
2022-11-10T20:28:53.027Z,74.89
2022-11-10T20:32:13.475Z,74.96
2022-11-10T20:35:40.948Z,74.45
2022-11-10T20:39:01.713Z,74.99
2022-11-10T20:42:22.195Z,74.61
2022-11-10T20:45:42.861Z,74.43
2022-11-10T20:49:03.469Z,75.32
2022-11-10T20:52:24.303Z,74.89
2022-11-10T20:55:53.465Z,75.38
2022-11-10T20:59:14.844Z,75.76
2022-11-10T21:02:35.581Z,75.35
2022-11-10T21:05:56.120Z,75.66
2022-11-10T21:09:16.785Z,76.33
2022-11-10T21:12:49.340Z,75.45
2022-11-10T21:16:09.724Z,74.98
2022-11-10T21:19:36.505Z,75.52
2022-11-10T21:23:03.028Z,75.59
2022-11-10T21:26:24.321Z,75.46
2022-11-10T21:29:44.774Z,74.78
2022-11-10T21:33:06.861Z,75.47
2022-11-10T21:36:29.448Z,75.40
2022-11-10T21:39:50.395Z,75.02
2022-11-10T21:43:10.880Z,75.19
2022-11-10T21:46:31.487Z,75.01
2022-11-10T21:49:52.011Z,74.45
2022-11-10T21:53:12.905Z,75.26
2022-11-10T21:56:33.671Z,75.19
2022-11-10T21:59:54.389Z,75.21
2022-11-10T22:03:14.802Z,75.16
2022-11-10T22:06:54.048Z,74.36
2022-11-10T22:10:33.541Z,73.67
2022-11-10T22:14:13.081Z,74.04
2022-11-10T22:17:52.532Z,73.50
2022-11-10T22:21:13.214Z,73.35
2022-11-10T22:24:33.822Z,73.27
2022-11-10T22:27:54.682Z,73.59
2022-11-10T22:31:15.034Z,74.11
2022-11-10T22:34:35.750Z,74.20
2022-11-10T22:37:56.318Z,74.19
2022-11-10T22:41:35.594Z,74.42
2022-11-10T22:44:56.486Z,73.11
2022-11-10T22:48:26.254Z,73.33
2022-11-10T22:51:52.305Z,72.67
2022-11-10T22:55:12.958Z,73.30
2022-11-10T22:58:33.377Z,73.24
2022-11-10T23:01:56.159Z,73.37
2022-11-10T23:05:17.368Z,73.41
2022-11-10T23:08:38.453Z,72.94
2022-11-10T23:11:58.952Z,72.72
2022-11-10T23:15:19.485Z,72.65
2022-11-10T23:18:45.759Z,73.20
2022-11-10T23:22:06.313Z,73.02
2022-11-10T23:25:26.678Z,72.98
2022-11-10T23:28:47.287Z,73.18
2022-11-10T23:32:07.970Z,73.32
2022-11-10T23:35:28.341Z,73.51
2022-11-10T23:38:48.841Z,73.49
2022-11-10T23:42:09.282Z,73.43
2022-11-10T23:45:52.715Z,74.17
2022-11-10T23:49:10.345Z,73.49
2022-11-10T23:52:30.822Z,74.16
2022-11-10T23:56:01.387Z,74.35
2022-11-10T23:59:21.998Z,73.55
